createdAt,value
2022-08-10T00:01:57.275Z,27.80
2022-08-10T00:06:58.996Z,27.90
2022-08-10T00:12:00.779Z,27.50
2022-08-10T00:17:02.495Z,27.70
2022-08-10T00:22:04.256Z,27.30
2022-08-10T00:27:57.859Z,27.40
2022-08-10T00:32:27.827Z,27.60
2022-08-10T00:37:29.547Z,27.60
2022-08-10T00:42:31.617Z,27.40
2022-08-10T00:47:37.450Z,27.60
2022-08-10T00:52:40.035Z,27.40
2022-08-10T00:57:42.211Z,27.70
2022-08-10T01:02:44.022Z,27.60
2022-08-10T01:08:05.662Z,27.40
2022-08-10T01:13:13.563Z,27.50
2022-08-10T01:18:37.966Z,27.50
2022-08-10T01:23:58.685Z,27.60
2022-08-10T01:29:37.264Z,27.80
2022-08-10T01:34:51.538Z,27.30
2022-08-10T01:39:57.329Z,27.10
2022-08-10T01:45:03.493Z,27.00
2022-08-10T01:50:20.343Z,26.80
2022-08-10T01:55:23.697Z,27.00
2022-08-10T02:00:27.454Z,26.90
2022-08-10T02:05:31.753Z,27.40
2022-08-10T02:10:35.096Z,27.60
2022-08-10T02:15:39.318Z,27.30
2022-08-10T02:21:04.490Z,27.80
2022-08-10T02:26:08.564Z,27.80
2022-08-10T02:31:18.337Z,27.70
2022-08-10T02:36:27.154Z,27.70
2022-08-10T02:45:02.633Z,27.70
2022-08-10T02:47:26.932Z,27.60
2022-08-10T02:52:38.422Z,27.60
2022-08-10T02:58:15.566Z,27.60
2022-08-10T03:03:05.293Z,27.60
2022-08-10T03:08:10.227Z,27.40
2022-08-10T03:13:13.629Z,27.20
2022-08-10T03:18:16.114Z,27.20
2022-08-10T03:23:23.850Z,26.80
2022-08-10T03:28:29.043Z,26.90
2022-08-10T03:33:35.215Z,26.90
2022-08-10T03:38:37.567Z,26.90
2022-08-10T03:43:41.675Z,27.00
2022-08-10T03:48:49.269Z,26.60
2022-08-10T03:54:04.839Z,26.20
2022-08-10T03:59:11.628Z,26.10
2022-08-10T04:04:17.553Z,26.70
2022-08-10T04:09:54.705Z,26.60
2022-08-10T04:14:53.687Z,26.30
2022-08-10T04:19:57.621Z,26.70
2022-08-10T04:25:01.561Z,26.90
2022-08-10T04:30:03.532Z,26.80
2022-08-10T04:35:06.724Z,26.80
2022-08-10T04:40:24.894Z,26.40
2022-08-10T04:45:49.405Z,26.10
2022-08-10T04:50:53.566Z,25.90
2022-08-10T04:55:55.339Z,26.00
2022-08-10T05:00:57.221Z,26.00
2022-08-10T05:05:58.974Z,26.00
2022-08-10T05:11:03.282Z,26.30
2022-08-10T05:16:05.186Z,26.20
2022-08-10T05:21:06.936Z,26.30
2022-08-10T05:26:08.747Z,26.70
2022-08-10T05:31:10.478Z,26.90
2022-08-10T05:36:17.152Z,27.30
2022-08-10T05:41:19.656Z,27.10
2022-08-10T05:46:21.497Z,27.10
2022-08-10T05:51:24.293Z,27.30
2022-08-10T05:56:26.791Z,27.40
2022-08-10T06:02:32.133Z,27.40
2022-08-10T06:07:13.818Z,27.10
2022-08-10T06:12:26.714Z,27.50
2022-08-10T06:17:31.635Z,27.80
2022-08-10T06:22:33.831Z,27.60
2022-08-10T06:27:37.662Z,28.00
2022-08-10T06:32:40.379Z,28.20
2022-08-10T06:37:44.200Z,28.00
2022-08-10T06:42:54.823Z,28.10
2022-08-10T06:48:04.033Z,28.00
2022-08-10T06:53:14.012Z,28.30
2022-08-10T06:58:17.208Z,28.40
2022-08-10T07:03:21.124Z,28.50
2022-08-10T07:08:23.905Z,28.50
2022-08-10T07:14:16.246Z,28.70
2022-08-10T07:18:49.452Z,28.90
2022-08-10T07:23:52.052Z,28.80
2022-08-10T07:29:02.068Z,28.80
2022-08-10T07:34:04.816Z,29.00
2022-08-10T07:39:09.105Z,29.20
2022-08-10T07:44:11.681Z,29.10
2022-08-10T07:49:26.370Z,29.00
2022-08-10T07:54:31.062Z,29.10
2022-08-10T07:59:38.061Z,29.10
2022-08-10T08:04:40.655Z,29.10
2022-08-10T08:09:58.087Z,29.20
2022-08-10T08:16:15.718Z,29.40
2022-08-10T08:20:26.298Z,29.50
2022-08-10T08:25:31.313Z,29.70
2022-08-10T08:30:33.489Z,29.80
2022-08-10T08:35:35.531Z,30.00
2022-08-10T08:40:37.767Z,30.30
2022-08-10T08:46:09.454Z,30.30
2022-08-10T08:52:11.362Z,30.80
2022-08-10T08:57:49.121Z,31.20
2022-08-10T09:03:08.703Z,30.70
2022-08-10T09:09:04.483Z,30.60
2022-08-10T09:14:17.769Z,31.60
2022-08-10T09:19:51.460Z,31.30
2022-08-10T09:25:15.047Z,31.10
2022-08-10T09:30:25.382Z,31.30
2022-08-10T09:36:22.286Z,31.30
2022-08-10T09:41:31.000Z,31.60
2022-08-10T09:46:54.515Z,32.00
2022-08-10T09:52:31.926Z,31.80
2022-08-10T09:57:57.244Z,32.20
2022-08-10T10:03:17.801Z,31.70
2022-08-10T10:08:48.774Z,32.40
2022-08-10T10:14:12.581Z,32.20
2022-08-10T10:19:22.999Z,32.70
2022-08-10T10:24:39.826Z,32.70
2022-08-10T10:29:57.109Z,32.90
2022-08-10T10:35:12.355Z,32.70
2022-08-10T10:40:15.465Z,32.90
2022-08-10T10:45:28.130Z,32.70
2022-08-10T10:50:44.360Z,32.90
2022-08-10T10:56:14.714Z,33.10
2022-08-10T11:01:37.666Z,33.50
2022-08-10T11:07:01.478Z,33.80
2022-08-10T11:12:31.195Z,33.50
2022-08-10T11:17:42.549Z,33.20
2022-08-10T11:23:02.607Z,33.80
2022-08-10T11:28:34.111Z,33.80
2022-08-10T11:34:46.809Z,34.10
2022-08-10T11:39:59.361Z,34.10
2022-08-10T11:45:12.407Z,34.60
2022-08-10T11:50:32.907Z,34.70
2022-08-10T11:55:35.168Z,34.70
2022-08-10T12:00:38.448Z,34.80
2022-08-10T12:05:48.331Z,34.90
2022-08-10T12:10:58.116Z,35.10
2022-08-10T12:16:09.526Z,35.10
2022-08-10T12:21:22.600Z,35.50
2022-08-10T12:26:35.782Z,34.30
2022-08-10T12:31:54.060Z,34.80
2022-08-10T12:37:14.703Z,35.00
2022-08-10T12:42:37.120Z,35.30
2022-08-10T12:47:59.137Z,35.90
2022-08-10T12:53:10.216Z,35.00
2022-08-10T12:58:58.284Z,35.50
2022-08-10T13:04:21.606Z,35.60
2022-08-10T13:09:03.353Z,35.50
2022-08-10T13:14:20.786Z,36.00
2022-08-10T13:19:53.503Z,36.40
2022-08-10T13:24:58.026Z,36.30
2022-08-10T13:30:04.181Z,35.70
2022-08-10T13:35:12.179Z,36.30
2022-08-10T13:40:17.970Z,36.00
2022-08-10T13:45:23.082Z,35.80
2022-08-10T13:50:33.431Z,36.10
2022-08-10T13:55:56.861Z,34.80
2022-08-10T14:01:01.581Z,35.30
2022-08-10T14:06:05.499Z,35.30
2022-08-10T14:11:16.731Z,35.50
2022-08-10T14:16:19.649Z,35.20
2022-08-10T14:21:22.233Z,35.70
2022-08-10T14:26:29.642Z,36.10
2022-08-10T14:31:34.055Z,36.10
2022-08-10T14:36:58.488Z,35.80
2022-08-10T14:42:16.786Z,35.90
2022-08-10T14:47:54.056Z,35.30
2022-08-10T14:52:51.426Z,35.10
2022-08-10T14:58:16.931Z,35.60
2022-08-10T15:04:02.186Z,35.60
2022-08-10T15:08:40.885Z,35.90
2022-08-10T15:14:12.287Z,35.30
2022-08-10T15:20:00.985Z,35.50
2022-08-10T15:24:37.552Z,35.50
2022-08-10T15:29:57.465Z,35.10
2022-08-10T15:35:01.724Z,35.50
2022-08-10T15:40:26.218Z,35.10
2022-08-10T15:45:33.490Z,34.60
2022-08-10T15:50:40.828Z,34.20
2022-08-10T15:55:52.580Z,33.90
2022-08-10T16:02:13.157Z,33.70
2022-08-10T16:06:38.868Z,33.40
2022-08-10T16:11:45.173Z,33.20
2022-08-10T16:16:54.188Z,33.10
2022-08-10T16:22:34.460Z,32.90
2022-08-10T16:27:30.557Z,32.50
2022-08-10T16:32:33.462Z,32.50
2022-08-10T16:37:58.829Z,32.40
2022-08-10T16:43:02.020Z,32.20
2022-08-10T16:48:05.158Z,32.10
2022-08-10T16:53:11.973Z,31.90
2022-08-10T16:58:17.726Z,31.80
2022-08-10T17:04:06.907Z,31.70
2022-08-10T17:08:52.738Z,31.60
2022-08-10T17:13:58.931Z,31.70
2022-08-10T17:19:02.147Z,31.60
2022-08-10T17:24:06.715Z,31.40
2022-08-10T17:29:17.475Z,31.20
2022-08-10T17:34:40.674Z,31.10
2022-08-10T17:39:48.514Z,31.00
2022-08-10T17:44:54.051Z,30.90
2022-08-10T17:49:57.802Z,30.80
2022-08-10T17:55:10.211Z,30.80
2022-08-10T18:00:12.408Z,30.60
2022-08-10T18:05:15.302Z,30.70
2022-08-10T18:10:21.314Z,30.40
2022-08-10T18:15:27.066Z,30.30
2022-08-10T18:20:37.433Z,30.20
2022-08-10T18:25:44.905Z,30.20
2022-08-10T18:30:50.663Z,30.10
2022-08-10T18:35:54.547Z,29.90
2022-08-10T18:41:11.006Z,29.60
2022-08-10T18:46:20.291Z,29.60
2022-08-10T18:51:25.736Z,29.70
2022-08-10T18:56:29.198Z,29.60
2022-08-10T19:02:19.153Z,29.80
2022-08-10T19:07:32.719Z,29.60
2022-08-10T19:12:43.380Z,29.50
2022-08-10T19:18:15.020Z,29.40
2022-08-10T19:24:14.014Z,29.30
2022-08-10T19:30:09.374Z,29.20
2022-08-10T19:35:18.671Z,29.20
2022-08-10T19:40:45.994Z,29.00
2022-08-10T19:46:04.094Z,28.80
2022-08-10T19:51:18.344Z,28.60
2022-08-10T19:56:41.695Z,28.50
2022-08-10T20:01:55.810Z,28.50
2022-08-10T20:07:13.534Z,28.50
2022-08-10T20:12:30.157Z,28.30
2022-08-10T20:17:51.607Z,28.10
2022-08-10T20:23:16.080Z,28.20
2022-08-10T20:28:19.589Z,28.40
2022-08-10T20:33:42.536Z,28.70
2022-08-10T20:39:02.543Z,28.70
2022-08-10T20:44:15.343Z,28.40
2022-08-10T20:49:41.019Z,28.40
2022-08-10T20:54:49.743Z,28.50
2022-08-10T21:00:28.265Z,28.50
2022-08-10T21:05:32.079Z,28.40
2022-08-10T21:11:05.631Z,28.10
2022-08-10T21:16:22.138Z,27.90
2022-08-10T21:21:41.307Z,27.80
2022-08-10T21:26:56.507Z,27.70
2022-08-10T21:32:27.008Z,27.80
2022-08-10T21:37:58.696Z,27.60
2022-08-10T21:43:44.527Z,27.60
2022-08-10T21:49:00.630Z,27.50
2022-08-10T21:54:17.097Z,27.60
2022-08-10T21:59:34.895Z,27.80
2022-08-10T22:04:38.055Z,28.00
2022-08-10T22:09:47.090Z,27.70
2022-08-10T22:14:52.100Z,27.60
2022-08-10T22:20:04.066Z,27.80
2022-08-10T22:25:26.326Z,27.90
2022-08-10T22:30:34.766Z,27.60
2022-08-10T22:35:59.941Z,27.40
2022-08-10T22:41:13.004Z,27.60
2022-08-10T22:46:23.365Z,27.20
2022-08-10T22:51:31.849Z,27.30
2022-08-10T22:56:38.421Z,27.20
2022-08-10T23:02:07.580Z,27.30
2022-08-10T23:07:31.166Z,27.40
2022-08-10T23:12:42.127Z,27.50
2022-08-10T23:18:01.867Z,27.80
2022-08-10T23:23:09.926Z,27.70
2022-08-10T23:28:13.902Z,27.80
2022-08-10T23:33:38.277Z,27.40
2022-08-10T23:38:41.236Z,27.10
2022-08-10T23:49:11.541Z,25.80
2022-08-10T23:54:18.682Z,25.90
2022-08-10T23:59:22.758Z,26.20
